Decoded Metar for KHXD (HILTON HEAD in SC, USA) (IATA:HXD) | Meteo·Mobile Aviation Weather
aviador You're here:

KHXD Decoded Metar

HILTON HEAD in SC, USA
Report Time2019-01-17 22:50:00
UTC Time2019-01-17 22:55:06
Flight Rules vfr VFR
Wind150° at 04 kt
W.Decomp.*RWY 21: 2.4 kt HW 3.2 kt LCW
W.Rank150° ranks 14
Current wind is below 150° avg. (5.7)
Visibility9999 m
Phenomena:N/A
Clouds:N/A
Expected CloudBase > 1,200 ft AGL from Temp-Dew spread
CeilingNone
Temp11°C (ISA -4)
Dew Point08°C (82% RH)
AAT9.1°C
QNH1022 hPa
Density Alt-614 ft
Elevation20 ft
Report Wrong Elevation
Raw Report
KHXD 172250Z 15004KT 10SM CLR 11/08 A3019=

Extra information for KHXD:More info

Metar Taf Metar & Taf Last 4 Metars F.Rules Stats Wind Profile Meteogram Temp Stats Airport Information Weather charts Add Link Nearby VenuesMetar ALERT Operation Metar Decoded Social comments

AIRNAV info for KHXD